Time;durP1;ratioP1;P1;durP2;ratioP2;P2;SDS_P1;SDS_P2;PMS_P1;PMS_P2;Temp;Humidity;BMP_temperature;BMP_pressure;BME280_temperature;BME280_humidity;BME280_pressure;Samples;Min_cycle;Max_cycle;Signal;HPM_P1;HPM_P2
2022/07/11 00:01:39;;;;;;;1.48;1.30;;;;;;;;;;10420335;28;20045;-82
2022/07/11 00:06:39;;;;;;;2.85;1.10;;;;;;;;;;10382951;28;20037;-80
2022/07/11 00:11:40;;;;;;;2.15;1.00;;;;;;;;;;10398374;28;20061;-80
2022/07/11 00:16:41;;;;;;;3.93;1.40;;;;;;;;;;10411973;28;20077;-80
2022/07/11 00:21:43;;;;;;;5.13;1.40;;;;;;;;;;10407930;28;20260;-82
2022/07/11 00:26:43;;;;;;;3.05;1.25;;;;;;;;;;10419110;28;20052;-83
2022/07/11 00:31:49;;;;;;;2.13;1.40;;;;;;;;;;10416209;28;20046;-83
2022/07/11 00:36:50;;;;;;;1.20;1.10;;;;;;;;;;10411861;28;20105;-83
2022/07/11 00:41:51;;;;;;;1.40;1.15;;;;;;;;;;10429581;28;20114;-81
2022/07/11 00:46:52;;;;;;;1.52;1.10;;;;;;;;;;10421492;28;20096;-81
2022/07/11 00:51:53;;;;;;;2.85;1.20;;;;;;;;;;10409204;28;20069;-84
2022/07/11 00:56:55;;;;;;;2.17;1.10;;;;;;;;;;10424345;28;20129;-83
2022/07/11 01:01:57;;;;;;;1.98;0.90;;;;;;;;;;10410937;28;20085;-84
2022/07/11 01:06:58;;;;;;;1.70;1.10;;;;;;;;;;10419565;28;20136;-81
2022/07/11 01:12:02;;;;;;;1.40;1.02;;;;;;;;;;10425474;28;20129;-83
2022/07/11 01:17:02;;;;;;;;;;;;;;;;;;10428975;28;20050;-81
2022/07/11 01:22:07;;;;;;;1.20;0.90;;;;;;;;;;10427092;28;19923;-81
2022/07/11 01:27:09;;;;;;;1.98;1.50;;;;;;;;;;10379557;28;20049;-81
2022/07/11 01:32:09;;;;;;;1.42;1.23;;;;;;;;;;10405644;28;20052;-82
2022/07/11 01:37:13;;;;;;;1.60;1.10;;;;;;;;;;10401764;28;20085;-83
2022/07/11 01:42:17;;;;;;;1.30;1.20;;;;;;;;;;10419834;28;20527;-84
2022/07/11 01:47:19;;;;;;;2.35;1.15;;;;;;;;;;10386245;28;20049;-85
2022/07/11 01:52:19;;;;;;;1.90;1.08;;;;;;;;;;10367003;28;20175;-84
2022/07/11 01:57:20;;;;;;;1.75;1.33;;;;;;;;;;10414940;28;20060;-85
2022/07/11 02:02:20;;;;;;;2.80;1.40;;;;;;;;;;10416930;28;20052;-84
2022/07/11 02:08:11;;;;;;;2.17;1.50;;;;;;;;;;10420467;28;20113;-89
2022/07/11 02:12:52;;;;;;;2.97;1.50;;;;;;;;;;10403742;28;20040;-86
2022/07/11 02:17:59;;;;;;;1.73;1.30;;;;;;;;;;10364622;28;20076;-84
2022/07/11 02:23:01;;;;;;;1.63;1.08;;;;;;;;;;10391474;28;20046;-82
2022/07/11 02:28:02;;;;;;;2.03;1.70;;;;;;;;;;10363430;28;20092;-82
2022/07/11 02:33:19;;;;;;;3.03;1.80;;;;;;;;;;10384510;28;20061;-82
2022/07/11 02:38:21;;;;;;;2.75;1.40;;;;;;;;;;10383498;28;20073;-87
2022/07/11 02:43:28;;;;;;;2.58;1.70;;;;;;;;;;10440462;28;20068;-85
2022/07/11 02:48:30;;;;;;;2.83;1.55;;;;;;;;;;10420884;28;20436;-82
2022/07/11 02:53:32;;;;;;;3.10;1.80;;;;;;;;;;10433347;28;20029;-85
2022/07/11 02:58:38;;;;;;;3.05;1.50;;;;;;;;;;10426205;28;20060;-83
2022/07/11 03:03:40;;;;;;;2.60;1.63;;;;;;;;;;10391807;28;20067;-83
2022/07/11 03:08:41;;;;;;;2.72;1.77;;;;;;;;;;10405185;28;20041;-84
2022/07/11 03:13:41;;;;;;;2.17;1.42;;;;;;;;;;10411385;28;20040;-84
2022/07/11 03:18:49;;;;;;;2.15;1.50;;;;;;;;;;10427289;28;20073;-84
2022/07/11 03:23:50;;;;;;;2.45;1.42;;;;;;;;;;10385912;28;20072;-82
2022/07/11 03:28:52;;;;;;;2.60;1.75;;;;;;;;;;10392840;28;20033;-81
2022/07/11 03:33:55;;;;;;;3.00;1.70;;;;;;;;;;10403480;28;20109;-81
2022/07/11 03:38:56;;;;;;;2.25;1.80;;;;;;;;;;10425861;28;20041;-81
2022/07/11 03:43:57;;;;;;;3.05;1.90;;;;;;;;;;10416503;28;20045;-80
2022/07/11 03:48:58;;;;;;;3.45;1.90;;;;;;;;;;10418121;28;20050;-80
2022/07/11 03:53:58;;;;;;;2.85;1.90;;;;;;;;;;10395110;28;20052;-79
2022/07/11 03:58:59;;;;;;;4.63;2.17;;;;;;;;;;10409794;28;20061;-81
2022/07/11 04:03:59;;;;;;;2.17;1.90;;;;;;;;;;10410412;28;20055;-84
2022/07/11 04:09:01;;;;;;;2.20;2.00;;;;;;;;;;10413501;28;20869;-82
2022/07/11 04:14:01;;;;;;;2.30;1.95;;;;;;;;;;10416998;28;20060;-84
2022/07/11 04:19:04;;;;;;;3.00;1.97;;;;;;;;;;10429985;28;20041;-82
2022/07/11 04:24:04;;;;;;;5.65;2.20;;;;;;;;;;10425397;28;20045;-82
2022/07/11 04:29:05;;;;;;;1.92;1.70;;;;;;;;;;10433248;28;20125;-82
2022/07/11 04:34:08;;;;;;;1.95;1.60;;;;;;;;;;10418665;28;20108;-83
2022/07/11 04:39:11;;;;;;;3.42;1.73;;;;;;;;;;10417607;28;20043;-83
2022/07/11 04:44:11;;;;;;;6.38;2.42;;;;;;;;;;10422343;28;20042;-84
2022/07/11 04:49:13;;;;;;;2.20;1.90;;;;;;;;;;10430108;28;20056;-81
2022/07/11 04:54:14;;;;;;;2.03;1.83;;;;;;;;;;10408938;28;20417;-80
2022/07/11 04:59:15;;;;;;;2.60;1.75;;;;;;;;;;10396113;28;20292;-79
2022/07/11 05:04:15;;;;;;;2.10;1.70;;;;;;;;;;10386026;28;20057;-78
2022/07/11 05:09:16;;;;;;;2.30;1.90;;;;;;;;;;10384495;28;20374;-76
2022/07/11 05:14:16;;;;;;;1.92;1.73;;;;;;;;;;10384118;28;20059;-76
2022/07/11 05:19:17;;;;;;;4.20;2.37;;;;;;;;;;10393679;28;20373;-77
2022/07/11 05:24:18;;;;;;;3.42;2.20;;;;;;;;;;10383717;28;20285;-77
2022/07/11 05:29:18;;;;;;;2.70;2.15;;;;;;;;;;10385688;28;20057;-76
2022/07/11 05:34:19;;;;;;;4.43;2.20;;;;;;;;;;10379179;28;20077;-77
2022/07/11 05:39:20;;;;;;;2.88;2.35;;;;;;;;;;10377658;28;20065;-78
2022/07/11 05:44:21;;;;;;;4.53;2.33;;;;;;;;;;10387097;28;20050;-78
2022/07/11 05:49:22;;;;;;;3.70;2.22;;;;;;;;;;10380064;28;20293;-80
2022/07/11 05:54:22;;;;;;;3.83;2.30;;;;;;;;;;10391126;28;20046;-82
2022/07/11 05:59:24;;;;;;;3.10;2.10;;;;;;;;;;10385208;28;20124;-81
2022/07/11 06:04:24;;;;;;;2.45;2.13;;;;;;;;;;10395018;28;20122;-83
2022/07/11 06:09:25;;;;;;;3.13;2.05;;;;;;;;;;10390710;28;20520;-83
2022/07/11 06:14:26;;;;;;;2.03;1.83;;;;;;;;;;10391361;28;20049;-80
2022/07/11 06:19:26;;;;;;;3.10;2.40;;;;;;;;;;10365712;28;20284;-78
2022/07/11 06:24:27;;;;;;;4.13;2.60;;;;;;;;;;10383554;28;20049;-78
2022/07/11 06:29:28;;;;;;;2.40;1.90;;;;;;;;;;10383750;28;20300;-79
2022/07/11 06:34:29;;;;;;;3.03;2.08;;;;;;;;;;10387785;28;20050;-78
2022/07/11 06:39:29;;;;;;;2.73;2.20;;;;;;;;;;10380978;28;20548;-80
2022/07/11 06:44:30;;;;;;;2.00;1.80;;;;;;;;;;10404350;28;20284;-79
2022/07/11 06:49:31;;;;;;;1.98;1.77;;;;;;;;;;10411434;28;20125;-80
2022/07/11 06:54:31;;;;;;;1.67;1.57;;;;;;;;;;10395073;28;20058;-79
2022/07/11 06:59:31;;;;;;;1.83;1.70;;;;;;;;;;10397023;28;20387;-80
2022/07/11 07:04:32;;;;;;;1.70;1.60;;;;;;;;;;10403482;28;20276;-79
2022/07/11 07:09:32;;;;;;;2.93;1.93;;;;;;;;;;10385170;28;20161;-79
2022/07/11 07:14:33;;;;;;;1.48;1.30;;;;;;;;;;10391689;28;20316;-79
2022/07/11 07:19:33;;;;;;;1.48;1.13;;;;;;;;;;10421768;28;20050;-81
2022/07/11 07:24:34;;;;;;;1.70;1.20;;;;;;;;;;10430069;28;20052;-83
2022/07/11 07:29:34;;;;;;;1.42;1.17;;;;;;;;;;10409273;28;20277;-80
2022/07/11 07:34:35;;;;;;;1.03;0.93;;;;;;;;;;10403114;28;20040;-80
2022/07/11 07:39:35;;;;;;;1.70;1.50;;;;;;;;;;10406508;28;20053;-83
2022/07/11 07:44:35;;;;;;;1.27;1.17;;;;;;;;;;10410790;28;20045;-81
2022/07/11 07:49:36;;;;;;;1.10;0.90;;;;;;;;;;10389976;28;20297;-79
2022/07/11 07:54:36;;;;;;;4.18;2.72;;;;;;;;;;10405637;28;20281;-74
2022/07/11 07:59:36;;;;;;;1.60;1.33;;;;;;;;;;10380343;28;20054;-75
2022/07/11 08:04:37;;;;;;;1.67;1.30;;;;;;;;;;10385618;28;20470;-75
2022/07/11 08:09:37;;;;;;;2.05;1.80;;;;;;;;;;10382842;28;20277;-75
2022/07/11 08:14:38;;;;;;;3.30;1.23;;;;;;;;;;10385715;28;20621;-74
2022/07/11 08:19:38;;;;;;;1.77;1.33;;;;;;;;;;10385011;28;20571;-75
2022/07/11 08:24:38;;;;;;;2.33;1.58;;;;;;;;;;10377277;28;20292;-75
2022/07/11 08:29:39;;;;;;;1.77;1.40;;;;;;;;;;10398107;28;20042;-75
2022/07/11 08:34:39;;;;;;;2.10;1.20;;;;;;;;;;10374521;28;20076;-72
2022/07/11 08:39:40;;;;;;;2.13;1.50;;;;;;;;;;10377754;28;20313;-75
2022/07/11 08:44:41;;;;;;;1.93;1.20;;;;;;;;;;10379496;28;20284;-75
2022/07/11 08:49:43;;;;;;;2.50;1.20;;;;;;;;;;10381199;28;20312;-75
2022/07/11 08:54:43;;;;;;;2.53;1.60;;;;;;;;;;10369171;28;20515;-75
2022/07/11 08:59:46;;;;;;;2.03;1.50;;;;;;;;;;10376959;28;20053;-74
2022/07/11 09:04:47;;;;;;;2.28;1.70;;;;;;;;;;10375571;28;20504;-73
2022/07/11 09:09:47;;;;;;;2.63;2.03;;;;;;;;;;10377578;28;20041;-75
2022/07/11 09:14:48;;;;;;;1.50;1.40;;;;;;;;;;10381600;28;20046;-73
2022/07/11 09:19:49;;;;;;;1.63;1.50;;;;;;;;;;10381018;28;20783;-76
2022/07/11 09:30:21;;;;;;;1.00;0.85;;;;;;;;;;10384402;28;20132;-75
2022/07/11 09:35:22;;;;;;;0.90;0.70;;;;;;;;;;10379061;28;20041;-75
2022/07/11 09:40:23;;;;;;;5.20;1.05;;;;;;;;;;10366509;28;20523;-74
2022/07/11 09:45:27;;;;;;;0.60;0.60;;;;;;;;;;10397420;28;20230;-82
2022/07/11 09:50:29;;;;;;;0.65;0.65;;;;;;;;;;10411812;28;20049;-81
2022/07/11 09:55:35;;;;;;;2.80;0.77;;;;;;;;;;10419803;28;20025;-81
2022/07/11 10:00:37;;;;;;;0.90;0.80;;;;;;;;;;10420883;28;20431;-82
2022/07/11 10:05:39;;;;;;;1.85;1.00;;;;;;;;;;10416682;28;20034;-81
2022/07/11 10:10:40;;;;;;;0.90;0.90;;;;;;;;;;10411618;28;20050;-80
2022/07/11 10:15:44;;;;;;;1.33;1.00;;;;;;;;;;10403933;28;20049;-85
2022/07/11 10:21:03;;;;;;;1.55;1.38;;;;;;;;;;10423486;28;20284;-81
2022/07/11 10:26:25;;;;;;;3.50;2.80;;;;;;;;;;10403054;28;20046;-82
2022/07/11 10:31:30;;;;;;;2.10;1.90;;;;;;;;;;10393766;28;20053;-84
2022/07/11 10:36:41;;;;;;;1.50;1.40;;;;;;;;;;10414938;28;20121;-84
2022/07/11 10:41:50;;;;;;;2.03;1.55;;;;;;;;;;10423901;28;20055;-85
2022/07/11 10:46:52;;;;;;;2.00;1.80;;;;;;;;;;10440141;28;20087;-83
2022/07/11 10:52:08;;;;;;;1.67;1.58;;;;;;;;;;10405960;28;20033;-83
2022/07/11 10:57:13;;;;;;;1.80;1.27;;;;;;;;;;10414834;28;20041;-84
2022/07/11 11:02:53;;;;;;;0.50;0.50;;;;;;;;;;10462305;28;20025;-84
2022/07/11 11:07:54;;;;;;;1.13;1.02;;;;;;;;;;10436028;28;20268;-85
2022/07/11 11:13:09;;;;;;;1.88;1.05;;;;;;;;;;10432440;28;20056;-84
2022/07/11 11:18:22;;;;;;;1.15;0.95;;;;;;;;;;10423755;28;20056;-85
2022/07/11 11:23:24;;;;;;;1.00;0.90;;;;;;;;;;10450564;28;20046;-83
2022/07/11 11:28:31;;;;;;;0.90;0.80;;;;;;;;;;10423073;28;20674;-82
2022/07/11 11:33:33;;;;;;;0.80;0.70;;;;;;;;;;10436686;28;20059;-83
2022/07/11 11:38:41;;;;;;;1.60;0.60;;;;;;;;;;10422849;28;20037;-81
2022/07/11 11:44:14;;;;;;;0.63;0.60;;;;;;;;;;10433127;28;20053;-82
2022/07/11 11:49:22;;;;;;;0.55;0.47;;;;;;;;;;10426915;28;20038;-85
2022/07/11 11:54:51;;;;;;;0.70;0.60;;;;;;;;;;10424527;28;20098;-84
2022/07/11 12:00:26;;;;;;;0.77;0.70;;;;;;;;;;10423622;28;20121;-82
2022/07/11 12:05:29;;;;;;;1.45;1.15;;;;;;;;;;10422918;28;20022;-84
2022/07/11 12:10:31;;;;;;;1.77;0.60;;;;;;;;;;10431402;28;20034;-82
2022/07/11 12:16:39;;;;;;;0.60;0.60;;;;;;;;;;10429107;28;20056;-80
2022/07/11 12:20:56;;;;;;;2.13;0.60;;;;;;;;;;10410354;28;20646;-81
2022/07/11 12:25:57;;;;;;;1.67;0.70;;;;;;;;;;10420022;28;20072;-81
2022/07/11 12:30:58;;;;;;;0.60;0.60;;;;;;;;;;10423692;28;20026;-81
2022/07/11 12:36:02;;;;;;;0.70;0.70;;;;;;;;;;10415932;28;20055;-81
2022/07/11 12:41:21;;;;;;;0.90;0.90;;;;;;;;;;10419710;28;20288;-82
2022/07/11 12:46:21;;;;;;;0.80;0.70;;;;;;;;;;10409852;28;20056;-82
2022/07/11 12:51:31;;;;;;;1.23;0.90;;;;;;;;;;10417546;28;20053;-83
2022/07/11 12:56:52;;;;;;;4.28;3.63;;;;;;;;;;10432887;28;20085;-84
2022/07/11 13:02:54;;;;;;;0.82;0.82;;;;;;;;;;10429986;28;20049;-85
2022/07/11 13:13:31;;;;;;;0.70;0.70;;;;;;;;;;10414300;28;20044;-85
2022/07/11 13:19:04;;;;;;;1.77;1.17;;;;;;;;;;10435646;28;20043;-84
2022/07/11 13:24:14;;;;;;;0.82;0.77;;;;;;;;;;10379646;28;20018;-85
2022/07/11 13:30:10;;;;;;;1.17;1.00;;;;;;;;;;10375480;28;20107;-87
2022/07/11 13:51:23;;;;;;;1.92;1.55;;;;;;;;;;10532177;27;20406;-80
2022/07/11 13:56:23;;;;;;;1.73;0.80;;;;;;;;;;10500942;28;20060;-79
2022/07/11 14:01:25;;;;;;;23.50;19.23;;;;;;;;;;10522197;28;20304;-83
2022/07/11 14:06:52;;;;;;;0.68;0.68;;;;;;;;;;10556310;28;20274;-85
2022/07/11 14:12:25;;;;;;;0.98;0.75;;;;;;;;;;10463137;23;20101;-82
2022/07/11 14:17:34;;;;;;;0.70;0.70;;;;;;;;;;10462688;28;20050;-84
2022/07/11 14:22:51;;;;;;;0.70;0.70;;;;;;;;;;10430657;28;20481;-85
2022/07/11 14:33:25;;;;;;;1.50;0.70;;;;;;;;;;10443373;28;20106;-84
2022/07/11 14:38:31;;;;;;;1.80;1.20;;;;;;;;;;10420211;28;20094;-83
2022/07/11 14:49:31;;;;;;;1.30;0.90;;;;;;;;;;10461305;28;20052;-85
2022/07/11 14:54:35;;;;;;;1.38;0.95;;;;;;;;;;10427698;28;20042;-83
2022/07/11 14:59:50;;;;;;;1.10;0.90;;;;;;;;;;10445650;28;20037;-83
2022/07/11 15:04:51;;;;;;;0.80;0.73;;;;;;;;;;10408581;28;20042;-84
2022/07/11 15:15:12;;;;;;;0.63;0.63;;;;;;;;;;10380442;28;20042;-84
2022/07/11 15:20:55;;;;;;;0.90;0.80;;;;;;;;;;10433956;28;20037;-83
2022/07/11 15:26:03;;;;;;;0.75;0.70;;;;;;;;;;10383730;28;20086;-86
2022/07/11 15:31:07;;;;;;;0.75;0.75;;;;;;;;;;10397345;28;20051;-80
2022/07/11 15:36:09;;;;;;;0.85;0.80;;;;;;;;;;10433832;28;20041;-82
2022/07/11 15:41:11;;;;;;;0.90;0.65;;;;;;;;;;10417948;28;20074;-82
2022/07/11 15:46:12;;;;;;;1.77;0.80;;;;;;;;;;10408188;28;20448;-82
2022/07/11 15:51:16;;;;;;;1.00;0.70;;;;;;;;;;10410178;28;20295;-82
2022/07/11 15:56:20;;;;;;;0.85;0.70;;;;;;;;;;10410009;28;20105;-82
2022/07/11 16:01:22;;;;;;;0.93;0.77;;;;;;;;;;10374377;28;20093;-82
2022/07/11 16:06:27;;;;;;;1.60;0.90;;;;;;;;;;10380302;28;20094;-84
2022/07/11 16:11:33;;;;;;;0.90;0.80;;;;;;;;;;10363475;28;20061;-83
2022/07/11 16:22:41;;;;;;;2.25;0.90;;;;;;;;;;10326742;28;20106;-84
2022/07/11 16:27:52;;;;;;;1.02;0.93;;;;;;;;;;10377981;28;20039;-82
2022/07/11 16:32:57;;;;;;;1.10;0.90;;;;;;;;;;10407076;28;20113;-85
2022/07/11 16:38:31;;;;;;;0.80;0.80;;;;;;;;;;10395349;28;20045;-83
2022/07/11 16:43:36;;;;;;;1.38;1.20;;;;;;;;;;10415519;28;20029;-85
2022/07/11 16:48:37;;;;;;;1.25;0.98;;;;;;;;;;10376919;28;20088;-81
2022/07/11 16:53:42;;;;;;;0.88;0.80;;;;;;;;;;10390284;28;20110;-82
2022/07/11 16:58:44;;;;;;;0.73;0.70;;;;;;;;;;10380058;28;20420;-82
2022/07/11 17:03:45;;;;;;;0.70;0.60;;;;;;;;;;10377657;28;20083;-81
2022/07/11 17:08:49;;;;;;;1.02;0.70;;;;;;;;;;10394966;28;20082;-84
2022/07/11 17:13:53;;;;;;;0.75;0.70;;;;;;;;;;10399044;28;20040;-84
2022/07/11 17:18:54;;;;;;;0.80;0.80;;;;;;;;;;10415457;28;20048;-84
2022/07/11 17:23:57;;;;;;;0.75;0.70;;;;;;;;;;10406043;28;20060;-83
2022/07/11 17:29:02;;;;;;;0.70;0.63;;;;;;;;;;10390863;28;20104;-83
2022/07/11 17:34:03;;;;;;;0.85;0.70;;;;;;;;;;10416781;28;20085;-82
2022/07/11 17:39:03;;;;;;;1.25;0.90;;;;;;;;;;10386286;28;20623;-83
2022/07/11 17:44:04;;;;;;;1.50;0.93;;;;;;;;;;10417854;28;20169;-83
2022/07/11 17:49:05;;;;;;;1.25;0.88;;;;;;;;;;10403326;28;20061;-80
2022/07/11 17:54:06;;;;;;;1.37;1.07;;;;;;;;;;10401823;28;20464;-82
2022/07/11 17:59:07;;;;;;;0.80;0.80;;;;;;;;;;10406242;28;20286;-80
2022/07/11 18:04:12;;;;;;;0.93;0.80;;;;;;;;;;10392443;28;20053;-82
2022/07/11 18:09:20;;;;;;;1.33;0.70;;;;;;;;;;10392641;28;20056;-83
2022/07/11 18:14:23;;;;;;;1.60;1.00;;;;;;;;;;10402554;28;20400;-82
2022/07/11 18:19:28;;;;;;;1.40;1.23;;;;;;;;;;10391620;28;20113;-82
2022/07/11 18:24:36;;;;;;;0.80;0.80;;;;;;;;;;10397876;28;20038;-83
2022/07/11 18:29:39;;;;;;;1.98;0.93;;;;;;;;;;10396703;28;20038;-81
2022/07/11 18:34:42;;;;;;;1.63;0.90;;;;;;;;;;10414146;28;20057;-84
2022/07/11 18:45:04;;;;;;;0.93;0.90;;;;;;;;;;10396602;28;20030;-84
2022/07/11 18:50:05;;;;;;;1.13;0.90;;;;;;;;;;10394110;28;20600;-83
2022/07/11 18:55:12;;;;;;;2.35;1.30;;;;;;;;;;10377633;28;20057;-83
2022/07/11 19:00:18;;;;;;;2.35;1.20;;;;;;;;;;10385533;28;20049;-84
2022/07/11 19:05:19;;;;;;;1.90;1.00;;;;;;;;;;10408177;28;20105;-83
2022/07/11 19:10:19;;;;;;;1.67;1.00;;;;;;;;;;10403391;28;20030;-85
2022/07/11 19:15:21;;;;;;;2.63;1.30;;;;;;;;;;10413205;28;20021;-84
2022/07/11 19:20:22;;;;;;;2.17;1.20;;;;;;;;;;10408763;28;20300;-85
2022/07/11 19:25:23;;;;;;;2.78;1.40;;;;;;;;;;10403448;28;20038;-82
2022/07/11 19:30:25;;;;;;;1.70;1.20;;;;;;;;;;10391116;28;20529;-84
2022/07/11 19:35:27;;;;;;;1.23;1.10;;;;;;;;;;10408562;28;20096;-82
2022/07/11 19:40:30;;;;;;;1.52;1.02;;;;;;;;;;10397020;28;20056;-83
2022/07/11 19:45:33;;;;;;;1.92;1.15;;;;;;;;;;10372305;28;20425;-84
2022/07/11 19:50:38;;;;;;;1.23;0.90;;;;;;;;;;10361852;28;20117;-83
2022/07/11 20:01:01;;;;;;;0.95;0.88;;;;;;;;;;10371428;28;20072;-82
2022/07/11 20:06:01;;;;;;;1.15;0.93;;;;;;;;;;10354693;28;20047;-81
2022/07/11 20:11:02;;;;;;;3.38;1.10;;;;;;;;;;10389280;28;20149;-82
2022/07/11 20:16:03;;;;;;;1.00;0.90;;;;;;;;;;10388092;28;20791;-85
2022/07/11 20:21:04;;;;;;;1.00;0.88;;;;;;;;;;10371775;28;20089;-84
2022/07/11 20:26:06;;;;;;;2.08;1.20;;;;;;;;;;10354076;28;20042;-83
2022/07/11 20:31:06;;;;;;;1.50;1.00;;;;;;;;;;10401365;28;20050;-84
2022/07/11 20:36:08;;;;;;;1.10;0.98;;;;;;;;;;10382914;28;20586;-83
2022/07/11 20:41:08;;;;;;;1.40;0.97;;;;;;;;;;10384437;28;20057;-84
2022/07/11 20:46:11;;;;;;;1.25;1.13;;;;;;;;;;10428070;28;20480;-83
2022/07/11 20:51:19;;;;;;;1.10;1.00;;;;;;;;;;10377550;28;20453;-84
2022/07/11 20:56:28;;;;;;;1.98;0.90;;;;;;;;;;10401689;28;20108;-83
2022/07/11 21:01:29;;;;;;;2.40;1.33;;;;;;;;;;10389671;28;20045;-82
2022/07/11 21:06:30;;;;;;;1.60;1.33;;;;;;;;;;10379371;28;20048;-85
2022/07/11 21:11:37;;;;;;;1.60;0.93;;;;;;;;;;10364261;28;20156;-83
2022/07/11 21:16:37;;;;;;;2.15;1.13;;;;;;;;;;10387563;28;20728;-84
2022/07/11 21:21:41;;;;;;;1.93;1.50;;;;;;;;;;10379587;28;20132;-83
2022/07/11 21:26:43;;;;;;;1.30;1.20;;;;;;;;;;10366718;28;20375;-82
2022/07/11 21:31:44;;;;;;;1.47;1.20;;;;;;;;;;10361588;28;20098;-83
2022/07/11 21:36:44;;;;;;;1.95;1.10;;;;;;;;;;10334202;28;20045;-83
2022/07/11 21:41:46;;;;;;;1.70;1.37;;;;;;;;;;10407435;28;20034;-84
2022/07/11 21:46:48;;;;;;;1.30;1.00;;;;;;;;;;10390845;28;20319;-83
2022/07/11 21:51:49;;;;;;;1.88;1.10;;;;;;;;;;10365414;28;20137;-83
2022/07/11 21:56:51;;;;;;;;;;;;;;;;;;10399155;28;20114;-83
2022/07/11 22:01:53;;;;;;;1.20;1.10;;;;;;;;;;10384228;28;20693;-88
2022/07/11 22:06:56;;;;;;;1.38;1.27;;;;;;;;;;10398967;28;20046;-83
2022/07/11 22:11:57;;;;;;;2.35;1.90;;;;;;;;;;10404335;28;20048;-82
2022/07/11 22:17:02;;;;;;;4.18;2.20;;;;;;;;;;10395457;28;20073;-84
2022/07/11 22:22:03;;;;;;;1.63;1.40;;;;;;;;;;10391022;28;20124;-86
2022/07/11 22:27:04;;;;;;;1.50;1.40;;;;;;;;;;10389466;28;20038;-85
2022/07/11 22:32:07;;;;;;;1.98;1.40;;;;;;;;;;10377249;28;20052;-84
2022/07/11 22:37:20;;;;;;;1.15;1.05;;;;;;;;;;10401516;28;20061;-84
2022/07/11 22:42:22;;;;;;;1.45;1.35;;;;;;;;;;10394590;28;20041;-85
2022/07/11 22:47:43;;;;;;;1.40;1.30;;;;;;;;;;10365879;28;20038;-85
2022/07/11 22:52:43;;;;;;;1.77;1.17;;;;;;;;;;10374544;28;20128;-85
2022/07/11 22:57:50;;;;;;;1.90;1.38;;;;;;;;;;10407923;28;20069;-84
2022/07/11 23:02:53;;;;;;;1.45;1.35;;;;;;;;;;10397082;28;20041;-85
2022/07/11 23:08:02;;;;;;;1.70;1.50;;;;;;;;;;10363523;28;20124;-85
2022/07/11 23:13:03;;;;;;;1.70;1.40;;;;;;;;;;10352083;28;20044;-83
2022/07/11 23:18:04;;;;;;;1.58;1.20;;;;;;;;;;10366358;28;20046;-85
2022/07/11 23:23:13;;;;;;;1.53;1.33;;;;;;;;;;10396815;28;20077;-86
2022/07/11 23:28:14;;;;;;;2.17;1.50;;;;;;;;;;10366506;28;20130;-85
2022/07/11 23:33:50;;;;;;;1.92;1.48;;;;;;;;;;10434531;28;20097;-83
2022/07/11 23:38:52;;;;;;;1.42;1.33;;;;;;;;;;10389774;28;20074;-83
2022/07/11 23:44:08;;;;;;;1.70;1.40;;;;;;;;;;10384583;28;20095;-83
2022/07/11 23:49:32;;;;;;;1.65;1.30;;;;;;;;;;10389734;28;20378;-82
2022/07/11 23:54:41;;;;;;;2.78;1.35;;;;;;;;;;10429817;28;20030;-84
